METAR Formatted Surface Weather Observation
Issued by NWS Shreveport, LA

Home | Current Version | Previous Version | Text Only | Print | Product List | Glossary On
Versions: 1 2 3 4 5 6
000
SAUS44 KSHV 271448
MTRSHV
SPECI KSHV 271442Z 30008KT 10SM SCT013 BKN090 OVC180 22/21 A2988 RMK AO2

     T02170206












USA.gov is the U.S. government's official web portal to all federal, state and local government web resources and services.